sensor_id;sensor_type;location;lat;lon;timestamp;pressure;altitude;pressure_sealevel;temperature;humidity
57894;BME280;43710;47.460;19.034;2023-03-13T05:04:06;100764.41;;;7.12;64.00
57894;BME280;43710;47.460;19.034;2023-03-13T05:07:08;100764.41;;;7.12;64.00
57894;BME280;43710;47.460;19.034;2023-03-13T05:10:12;100771.63;;;6.56;75.93
57894;BME280;43710;47.460;19.034;2023-03-13T05:13:16;100765.09;;;6.64;66.08
57894;BME280;43710;47.460;19.034;2023-03-13T05:16:19;100766.13;;;6.63;66.87
57894;BME280;43710;47.460;19.034;2023-03-13T05:19:22;100767.81;;;6.69;65.46
57894;BME280;43710;47.460;19.034;2023-03-13T05:22:29;100773.13;;;6.86;64.22
57894;BME280;43710;47.460;19.034;2023-03-13T05:25:32;100772.87;;;6.87;78.33
57894;BME280;43710;47.460;19.034;2023-03-13T05:28:34;100776.81;;;6.85;66.53
57894;BME280;43710;47.460;19.034;2023-03-13T05:31:38;100779.31;;;6.91;79.56
57894;BME280;43710;47.460;19.034;2023-03-13T05:34:41;100784.81;;;6.85;65.11
57894;BME280;43710;47.460;19.034;2023-03-13T05:37:44;100784.28;;;7.04;84.51
57894;BME280;43710;47.460;19.034;2023-03-13T05:40:47;100786.41;;;7.02;63.39
57894;BME280;43710;47.460;19.034;2023-03-13T05:43:52;100784.16;;;6.94;64.74
57894;BME280;43710;47.460;19.034;2023-03-13T05:46:54;100786.81;;;6.94;61.22
57894;BME280;43710;47.460;19.034;2023-03-13T05:49:58;100786.84;;;7.16;60.63
57894;BME280;43710;47.460;19.034;2023-03-13T05:53:01;100781.62;;;7.04;59.61
57894;BME280;43710;47.460;19.034;2023-03-13T05:56:04;100775.31;;;7.11;67.30
57894;BME280;43710;47.460;19.034;2023-03-13T05:59:07;100777.75;;;7.12;59.89
57894;BME280;43710;47.460;19.034;2023-03-13T06:02:10;100775.38;;;7.16;66.02
57894;BME280;43710;47.460;19.034;2023-03-13T06:05:13;100787.16;;;7.20;63.62
57894;BME280;43710;47.460;19.034;2023-03-13T06:08:15;100776.34;;;7.32;61.01
57894;BME280;43710;47.460;19.034;2023-03-13T06:11:18;100782.19;;;7.50;77.02
57894;BME280;43710;47.460;19.034;2023-03-13T06:14:20;100785.22;;;7.59;59.07
57894;BME280;43710;47.460;19.034;2023-03-13T06:17:23;100786.25;;;7.58;63.79
57894;BME280;43710;47.460;19.034;2023-03-13T06:20:26;100774.56;;;7.59;58.88
57894;BME280;43710;47.460;19.034;2023-03-13T06:23:29;100774.59;;;7.64;76.04
57894;BME280;43710;47.460;19.034;2023-03-13T06:26:31;100771.69;;;7.66;59.64
57894;BME280;43710;47.460;19.034;2023-03-13T06:29:33;100772.72;;;7.65;56.86
57894;BME280;43710;47.460;19.034;2023-03-13T06:32:36;100773.47;;;7.55;57.44
57894;BME280;43710;47.460;19.034;2023-03-13T06:35:40;100773.19;;;7.57;57.96
57894;BME280;43710;47.460;19.034;2023-03-13T06:38:57;100775.94;;;7.62;57.89
57894;BME280;43710;47.460;19.034;2023-03-13T06:41:59;100776.94;;;7.83;56.87
57894;BME280;43710;47.460;19.034;2023-03-13T06:45:01;100780.31;;;7.73;58.00
57894;BME280;43710;47.460;19.034;2023-03-13T06:48:04;100788.91;;;8.07;69.81
57894;BME280;43710;47.460;19.034;2023-03-13T06:51:10;100783.06;;;8.10;59.38
57894;BME280;43710;47.460;19.034;2023-03-13T06:54:13;100783.72;;;8.22;62.29
57894;BME280;43710;47.460;19.034;2023-03-13T06:57:15;100781.28;;;8.21;58.20
57894;BME280;43710;47.460;19.034;2023-03-13T07:00:19;100778.94;;;8.24;74.14
57894;BME280;43710;47.460;19.034;2023-03-13T07:03:21;100782.31;;;8.15;56.42
57894;BME280;43710;47.460;19.034;2023-03-13T07:06:23;100771.63;;;8.15;53.92
57894;BME280;43710;47.460;19.034;2023-03-13T07:09:25;100768.87;;;8.05;54.27
57894;BME280;43710;47.460;19.034;2023-03-13T07:12:28;100778.19;;;8.02;54.83
57894;BME280;43710;47.460;19.034;2023-03-13T07:15:31;100777.50;;;8.17;64.64
57894;BME280;43710;47.460;19.034;2023-03-13T07:18:34;100779.34;;;8.11;53.45
57894;BME280;43710;47.460;19.034;2023-03-13T07:21:37;100783.34;;;8.14;55.11
57894;BME280;43710;47.460;19.034;2023-03-13T07:24:39;100774.91;;;8.27;54.38
57894;BME280;43710;47.460;19.034;2023-03-13T07:27:42;100773.25;;;8.48;58.83
57894;BME280;43710;47.460;19.034;2023-03-13T07:30:44;100770.59;;;8.53;60.19
57894;BME280;43710;47.460;19.034;2023-03-13T07:33:46;100761.97;;;8.41;54.19
57894;BME280;43710;47.460;19.034;2023-03-13T07:36:49;100763.91;;;8.51;59.26
57894;BME280;43710;47.460;19.034;2023-03-13T07:39:51;100765.25;;;8.96;73.37
57894;BME280;43710;47.460;19.034;2023-03-13T07:42:54;100760.47;;;8.98;67.79
57894;BME280;43710;47.460;19.034;2023-03-13T07:46:03;100759.06;;;8.90;53.98
57894;BME280;43710;47.460;19.034;2023-03-13T07:49:07;100761.59;;;9.17;67.33
57894;BME280;43710;47.460;19.034;2023-03-13T07:52:09;100753.06;;;9.15;52.03
57894;BME280;43710;47.460;19.034;2023-03-13T07:55:12;100743.62;;;9.02;51.98
57894;BME280;43710;47.460;19.034;2023-03-13T07:58:15;100742.88;;;9.12;68.61
57894;BME280;43710;47.460;19.034;2023-03-13T08:01:23;100739.91;;;9.08;52.17
57894;BME280;43710;47.460;19.034;2023-03-13T08:04:29;100731.34;;;9.01;50.70
57894;BME280;43710;47.460;19.034;2023-03-13T08:07:31;100730.41;;;9.43;59.67
57894;BME280;43710;47.460;19.034;2023-03-13T08:10:33;100729.09;;;9.51;68.02
57894;BME280;43710;47.460;19.034;2023-03-13T08:13:36;100712.72;;;9.32;51.33
57894;BME280;43710;47.460;19.034;2023-03-13T08:16:39;100718.34;;;9.35;60.70
57894;BME280;43710;47.460;19.034;2023-03-13T08:19:41;100716.75;;;9.34;52.78
57894;BME280;43710;47.460;19.034;2023-03-13T08:22:45;100708.72;;;9.39;51.50
57894;BME280;43710;47.460;19.034;2023-03-13T08:25:47;100707.66;;;9.40;50.30
57894;BME280;43710;47.460;19.034;2023-03-13T08:28:55;100705.56;;;9.73;63.99
57894;BME280;43710;47.460;19.034;2023-03-13T08:31:58;100701.03;;;9.89;53.88
57894;BME280;43710;47.460;19.034;2023-03-13T08:35:00;100697.00;;;9.76;50.28
57894;BME280;43710;47.460;19.034;2023-03-13T08:38:02;100692.72;;;9.80;62.97
57894;BME280;43710;47.460;19.034;2023-03-13T08:41:05;100693.81;;;9.95;53.18
57894;BME280;43710;47.460;19.034;2023-03-13T08:44:10;100687.38;;;9.80;49.82
57894;BME280;43710;47.460;19.034;2023-03-13T08:47:13;100690.03;;;10.11;58.90
57894;BME280;43710;47.460;19.034;2023-03-13T08:50:15;100688.44;;;10.15;51.51
57894;BME280;43710;47.460;19.034;2023-03-13T08:53:18;100690.31;;;10.09;50.20
57894;BME280;43710;47.460;19.034;2023-03-13T08:56:22;100677.72;;;10.20;55.00
57894;BME280;43710;47.460;19.034;2023-03-13T08:59:25;100672.62;;;10.24;62.04
57894;BME280;43710;47.460;19.034;2023-03-13T09:02:27;100667.25;;;10.44;56.19
57894;BME280;43710;47.460;19.034;2023-03-13T09:05:30;100662.09;;;10.63;56.56
57894;BME280;43710;47.460;19.034;2023-03-13T09:08:33;100652.22;;;10.53;49.85
57894;BME280;43710;47.460;19.034;2023-03-13T09:11:37;100656.25;;;10.51;57.04
57894;BME280;43710;47.460;19.034;2023-03-13T09:14:40;100655.66;;;10.59;48.74
57894;BME280;43710;47.460;19.034;2023-03-13T09:17:43;100661.84;;;10.54;47.13
57894;BME280;43710;47.460;19.034;2023-03-13T09:20:45;100657.50;;;10.74;58.22
57894;BME280;43710;47.460;19.034;2023-03-13T09:23:50;100651.81;;;10.91;48.17
57894;BME280;43710;47.460;19.034;2023-03-13T09:26:52;100648.69;;;11.18;62.97
57894;BME280;43710;47.460;19.034;2023-03-13T09:30:03;100645.47;;;11.21;48.42
57894;BME280;43710;47.460;19.034;2023-03-13T09:33:06;100640.00;;;11.36;55.10
57894;BME280;43710;47.460;19.034;2023-03-13T09:36:09;100634.34;;;11.38;50.71
57894;BME280;43710;47.460;19.034;2023-03-13T09:39:11;100636.78;;;11.39;51.08
57894;BME280;43710;47.460;19.034;2023-03-13T09:42:18;100638.06;;;11.47;55.13
57894;BME280;43710;47.460;19.034;2023-03-13T09:45:34;100625.75;;;11.75;56.08
57894;BME280;43710;47.460;19.034;2023-03-13T09:48:44;100616.69;;;12.00;64.25
57894;BME280;43710;47.460;19.034;2023-03-13T09:51:53;100613.87;;;11.86;54.02
57894;BME280;43710;47.460;19.034;2023-03-13T09:55:02;100616.22;;;11.93;49.06
57894;BME280;43710;47.460;19.034;2023-03-13T09:58:16;100618.69;;;11.89;47.27
57894;BME280;43710;47.460;19.034;2023-03-13T10:01:26;100611.41;;;11.90;63.81
57894;BME280;43710;47.460;19.034;2023-03-13T10:04:35;100613.72;;;12.02;51.23
57894;BME280;43710;47.460;19.034;2023-03-13T10:07:42;100605.75;;;11.91;44.31
57894;BME280;43710;47.460;19.034;2023-03-13T10:10:56;100583.25;;;12.11;49.39
57894;BME280;43710;47.460;19.034;2023-03-13T10:17:38;100574.81;;;12.23;46.92
57894;BME280;43710;47.460;19.034;2023-03-13T10:20:42;100587.13;;;12.48;58.14
57894;BME280;43710;47.460;19.034;2023-03-13T10:23:53;100577.91;;;12.54;59.34
57894;BME280;43710;47.460;19.034;2023-03-13T10:26:56;100580.81;;;12.58;54.14
57894;BME280;43710;47.460;19.034;2023-03-13T10:29:59;100569.06;;;12.54;46.10
57894;BME280;43710;47.460;19.034;2023-03-13T10:36:11;100572.34;;;12.69;50.78
57894;BME280;43710;47.460;19.034;2023-03-13T10:39:17;100573.31;;;12.79;52.91
57894;BME280;43710;47.460;19.034;2023-03-13T10:42:24;100563.91;;;12.76;48.24
57894;BME280;43710;47.460;19.034;2023-03-13T10:45:31;100570.03;;;12.82;45.08
57894;BME280;43710;47.460;19.034;2023-03-13T10:48:37;100559.72;;;12.89;44.81
57894;BME280;43710;47.460;19.034;2023-03-13T10:51:45;100557.50;;;12.91;50.45
57894;BME280;43710;47.460;19.034;2023-03-13T10:54:49;100550.59;;;13.04;60.37
57894;BME280;43710;47.460;19.034;2023-03-13T10:57:59;100545.28;;;13.17;43.25
57894;BME280;43710;47.460;19.034;2023-03-13T11:01:14;100543.69;;;13.16;46.65
57894;BME280;43710;47.460;19.034;2023-03-13T11:04:20;100537.56;;;13.11;42.12
57894;BME280;43710;47.460;19.034;2023-03-13T11:07:35;100540.38;;;13.25;50.52
57894;BME280;43710;47.460;19.034;2023-03-13T11:10:50;100528.63;;;13.34;41.86
57894;BME280;43710;47.460;19.034;2023-03-13T11:13:53;100525.06;;;13.39;50.40
57894;BME280;43710;47.460;19.034;2023-03-13T11:17:30;100519.63;;;13.25;42.89
57894;BME280;43710;47.460;19.034;2023-03-13T11:20:36;100515.66;;;13.17;42.68
57894;BME280;43710;47.460;19.034;2023-03-13T11:23:42;100510.75;;;13.25;42.84
57894;BME280;43710;47.460;19.034;2023-03-13T11:27:13;100515.06;;;13.39;44.23
57894;BME280;43710;47.460;19.034;2023-03-13T11:34:05;100500.03;;;13.52;44.99
57894;BME280;43710;47.460;19.034;2023-03-13T11:37:17;100486.06;;;13.50;43.94
57894;BME280;43710;47.460;19.034;2023-03-13T11:43:59;100478.38;;;13.57;42.79
57894;BME280;43710;47.460;19.034;2023-03-13T11:47:31;100473.00;;;13.57;43.84
57894;BME280;43710;47.460;19.034;2023-03-13T11:50:43;100463.72;;;13.63;44.39
57894;BME280;43710;47.460;19.034;2023-03-13T11:54:56;100455.38;;;13.65;41.34
57894;BME280;43710;47.460;19.034;2023-03-13T12:01:10;100452.97;;;13.77;43.20
57894;BME280;43710;47.460;19.034;2023-03-13T12:04:16;100438.00;;;13.85;44.71
57894;BME280;43710;47.460;19.034;2023-03-13T12:07:30;100419.53;;;13.92;43.66
57894;BME280;43710;47.460;19.034;2023-03-13T12:10:40;100425.44;;;13.94;42.05
57894;BME280;43710;47.460;19.034;2023-03-13T12:13:58;100424.72;;;14.02;43.42
57894;BME280;43710;47.460;19.034;2023-03-13T12:17:07;100425.31;;;13.99;41.31
57894;BME280;43710;47.460;19.034;2023-03-13T12:20:19;100416.53;;;14.07;39.67
57894;BME280;43710;47.460;19.034;2023-03-13T12:24:11;100393.31;;;14.20;45.93
57894;BME280;43710;47.460;19.034;2023-03-13T12:27:04;100389.34;;;14.40;51.81
57894;BME280;43710;47.460;19.034;2023-03-13T12:33:52;100390.19;;;14.41;42.69
57894;BME280;43710;47.460;19.034;2023-03-13T12:40:45;100384.25;;;14.52;45.02
57894;BME280;43710;47.460;19.034;2023-03-13T12:43:53;100386.53;;;14.59;49.48
57894;BME280;43710;47.460;19.034;2023-03-13T12:54:17;100342.13;;;14.65;43.37
57894;BME280;43710;47.460;19.034;2023-03-13T13:00:50;100323.12;;;14.70;42.94
57894;BME280;43710;47.460;19.034;2023-03-13T13:03:57;100316.47;;;14.76;49.76
57894;BME280;43710;47.460;19.034;2023-03-13T13:07:19;100304.78;;;14.81;43.82
57894;BME280;43710;47.460;19.034;2023-03-13T13:10:24;100304.44;;;14.83;41.93
57894;BME280;43710;47.460;19.034;2023-03-13T13:13:28;100302.28;;;14.93;54.40
57894;BME280;43710;47.460;19.034;2023-03-13T13:16:32;100299.28;;;14.95;48.45
57894;BME280;43710;47.460;19.034;2023-03-13T13:22:45;100307.03;;;14.96;45.94
57894;BME280;43710;47.460;19.034;2023-03-13T13:25:47;100319.91;;;14.91;46.93
57894;BME280;43710;47.460;19.034;2023-03-13T13:28:51;100311.97;;;14.94;45.79
57894;BME280;43710;47.460;19.034;2023-03-13T13:31:55;100310.84;;;14.87;42.74
57894;BME280;43710;47.460;19.034;2023-03-13T13:35:28;100296.69;;;14.90;41.61
57894;BME280;43710;47.460;19.034;2023-03-13T13:38:31;100295.63;;;14.99;45.41
57894;BME280;43710;47.460;19.034;2023-03-13T13:41:39;100290.56;;;14.98;43.90
57894;BME280;43710;47.460;19.034;2023-03-13T13:45:00;100285.66;;;15.09;48.71
57894;BME280;43710;47.460;19.034;2023-03-13T13:48:26;100283.28;;;15.07;41.96
57894;BME280;43710;47.460;19.034;2023-03-13T13:51:30;100268.84;;;15.12;43.61
57894;BME280;43710;47.460;19.034;2023-03-13T13:54:53;100262.97;;;15.18;45.51
57894;BME280;43710;47.460;19.034;2023-03-13T13:58:11;100263.47;;;15.20;41.36
57894;BME280;43710;47.460;19.034;2023-03-13T14:01:15;100240.25;;;15.19;41.86
57894;BME280;43710;47.460;19.034;2023-03-13T14:04:26;100243.31;;;15.26;42.09
57894;BME280;43710;47.460;19.034;2023-03-13T14:07:36;100247.59;;;15.27;46.18
57894;BME280;43710;47.460;19.034;2023-03-13T14:10:50;100233.34;;;15.44;48.22
57894;BME280;43710;47.460;19.034;2023-03-13T14:14:18;100249.84;;;15.43;42.48
57894;BME280;43710;47.460;19.034;2023-03-13T14:17:20;100252.72;;;15.46;45.08
57894;BME280;43710;47.460;19.034;2023-03-13T14:20:25;100246.66;;;15.49;45.98
57894;BME280;43710;47.460;19.034;2023-03-13T14:26:44;100244.13;;;15.44;42.18
57894;BME280;43710;47.460;19.034;2023-03-13T14:30:08;100237.28;;;15.38;41.34
57894;BME280;43710;47.460;19.034;2023-03-13T14:33:11;100241.28;;;15.41;44.66
57894;BME280;43710;47.460;19.034;2023-03-13T14:36:13;100234.75;;;15.42;43.18
57894;BME280;43710;47.460;19.034;2023-03-13T14:39:18;100234.63;;;15.47;42.74
57894;BME280;43710;47.460;19.034;2023-03-13T14:42:21;100235.22;;;15.52;48.53
57894;BME280;43710;47.460;19.034;2023-03-13T14:48:31;100240.47;;;15.49;42.70
57894;BME280;43710;47.460;19.034;2023-03-13T14:51:37;100238.75;;;15.62;48.96
57894;BME280;43710;47.460;19.034;2023-03-13T14:54:54;100235.25;;;15.61;43.10
57894;BME280;43710;47.460;19.034;2023-03-13T14:58:03;100233.37;;;15.70;48.16
57894;BME280;43710;47.460;19.034;2023-03-13T15:01:32;100219.69;;;15.76;43.02
57894;BME280;43710;47.460;19.034;2023-03-13T15:04:58;100218.59;;;15.68;47.29
57894;BME280;43710;47.460;19.034;2023-03-13T15:08:01;100213.50;;;15.75;43.32
57894;BME280;43710;47.460;19.034;2023-03-13T15:11:20;100210.19;;;15.69;42.92
57894;BME280;43710;47.460;19.034;2023-03-13T15:14:39;100208.12;;;15.66;45.00
57894;BME280;43710;47.460;19.034;2023-03-13T15:17:41;100220.47;;;15.59;45.68
57894;BME280;43710;47.460;19.034;2023-03-13T15:20:52;100202.81;;;15.61;43.39
57894;BME280;43710;47.460;19.034;2023-03-13T15:24:03;100203.31;;;15.72;44.61
57894;BME280;43710;47.460;19.034;2023-03-13T15:27:19;100183.41;;;15.59;42.55
57894;BME280;43710;47.460;19.034;2023-03-13T15:30:22;100177.25;;;15.50;47.66
57894;BME280;43710;47.460;19.034;2023-03-13T15:33:27;100182.47;;;15.38;43.87
57894;BME280;43710;47.460;19.034;2023-03-13T15:36:30;100183.75;;;15.40;46.41
57894;BME280;43710;47.460;19.034;2023-03-13T15:39:33;100184.69;;;15.36;47.63
57894;BME280;43710;47.460;19.034;2023-03-13T15:42:35;100179.75;;;15.29;46.05
57894;BME280;43710;47.460;19.034;2023-03-13T15:45:39;100178.81;;;15.25;43.70
57894;BME280;43710;47.460;19.034;2023-03-13T15:48:42;100168.97;;;15.20;48.68
57894;BME280;43710;47.460;19.034;2023-03-13T15:51:44;100174.97;;;15.09;44.81
57894;BME280;43710;47.460;19.034;2023-03-13T15:54:48;100177.50;;;15.05;44.74
57894;BME280;43710;47.460;19.034;2023-03-13T15:57:51;100161.81;;;15.07;49.05
57894;BME280;43710;47.460;19.034;2023-03-13T16:00:54;100156.22;;;14.95;44.09
57894;BME280;43710;47.460;19.034;2023-03-13T16:03:57;100162.87;;;14.89;46.72
57894;BME280;43710;47.460;19.034;2023-03-13T16:07:01;100162.56;;;14.90;52.41
57894;BME280;43710;47.460;19.034;2023-03-13T16:10:11;100170.47;;;14.78;49.95
57894;BME280;43710;47.460;19.034;2023-03-13T16:13:16;100169.34;;;14.79;50.54
57894;BME280;43710;47.460;19.034;2023-03-13T16:16:24;100158.38;;;14.75;47.63
57894;BME280;43710;47.460;19.034;2023-03-13T16:19:29;100151.53;;;14.69;45.91
57894;BME280;43710;47.460;19.034;2023-03-13T16:22:32;100152.66;;;14.68;67.46
57894;BME280;43710;47.460;19.034;2023-03-13T16:25:34;100159.97;;;14.68;53.72
57894;BME280;43710;47.460;19.034;2023-03-13T16:28:36;100161.66;;;14.55;48.15
57894;BME280;43710;47.460;19.034;2023-03-13T16:31:38;100148.50;;;14.62;52.84
57894;BME280;43710;47.460;19.034;2023-03-13T16:34:41;100155.00;;;14.61;51.32
57894;BME280;43710;47.460;19.034;2023-03-13T16:37:44;100143.19;;;14.48;51.06
57894;BME280;43710;47.460;19.034;2023-03-13T16:40:46;100143.28;;;14.57;50.71
57894;BME280;43710;47.460;19.034;2023-03-13T16:43:49;100155.22;;;14.42;48.91
57894;BME280;43710;47.460;19.034;2023-03-13T16:46:51;100157.41;;;14.40;50.79
57894;BME280;43710;47.460;19.034;2023-03-13T16:55:35;100149.66;;;14.78;48.39
57894;BME280;43710;47.460;19.034;2023-03-13T16:58:38;100149.66;;;14.78;48.39
57894;BME280;43710;47.460;19.034;2023-03-13T17:01:40;100142.63;;;14.29;53.61
57894;BME280;43710;47.460;19.034;2023-03-13T17:04:44;100156.13;;;14.29;50.99
57894;BME280;43710;47.460;19.034;2023-03-13T17:07:48;100167.78;;;14.16;51.07
57894;BME280;43710;47.460;19.034;2023-03-13T17:10:51;100173.22;;;14.24;53.96
57894;BME280;43710;47.460;19.034;2023-03-13T17:13:53;100175.00;;;14.29;57.27
57894;BME280;43710;47.460;19.034;2023-03-13T17:16:56;100169.88;;;14.19;49.26
57894;BME280;43710;47.460;19.034;2023-03-13T17:19:58;100164.41;;;14.10;50.63
57894;BME280;43710;47.460;19.034;2023-03-13T17:23:00;100160.94;;;14.09;52.26
57894;BME280;43710;47.460;19.034;2023-03-13T17:26:03;100164.47;;;14.19;52.71
57894;BME280;43710;47.460;19.034;2023-03-13T17:29:06;100157.25;;;14.05;50.97
57894;BME280;43710;47.460;19.034;2023-03-13T17:32:13;100156.59;;;14.00;49.54
57894;BME280;43710;47.460;19.034;2023-03-13T17:35:17;100160.16;;;13.86;50.14
57894;BME280;43710;47.460;19.034;2023-03-13T17:38:19;100159.91;;;13.97;54.64
57894;BME280;43710;47.460;19.034;2023-03-13T17:41:25;100164.03;;;13.94;51.78
57894;BME280;43710;47.460;19.034;2023-03-13T17:44:27;100160.84;;;13.92;63.61
57894;BME280;43710;47.460;19.034;2023-03-13T17:47:30;100174.19;;;13.97;54.63
57894;BME280;43710;47.460;19.034;2023-03-13T17:50:32;100178.53;;;13.84;49.89
